createdAt,value
2023-01-13T00:24:35.217Z,63.26
2023-01-13T00:53:26.707Z,63.2
2023-01-13T01:22:09.991Z,63.18
2023-01-13T01:50:51.152Z,63.17
2023-01-13T02:19:34.757Z,63.14
2023-01-13T02:48:24.723Z,63.11
2023-01-13T03:17:06.044Z,63.09
2023-01-13T03:45:56.110Z,63.07
2023-01-13T04:14:40.757Z,63.04
2023-01-13T04:43:30.919Z,63.01
2023-01-13T05:12:13.229Z,62.99
2023-01-13T05:41:04.863Z,62.97
2023-01-13T06:09:39.555Z,62.95
2023-01-13T06:38:21.326Z,62.93
2023-01-13T07:06:59.929Z,63.03
2023-01-13T07:35:42.863Z,62.93
2023-01-13T08:04:24.033Z,63.03
2023-01-13T08:33:08.980Z,63.42
2023-01-13T09:01:53.587Z,63.7
2023-01-13T09:30:18.898Z,64.57
2023-01-13T09:58:43.112Z,64.75
2023-01-13T10:27:10.803Z,64.69
2023-01-13T10:55:43.525Z,62.97
2023-01-13T11:24:16.135Z,64.36
2023-01-13T11:52:45.922Z,64.8
2023-01-13T12:21:34.606Z,65.06
2023-01-13T12:50:02.933Z,65.45
2023-01-13T13:18:35.030Z,65.37
2023-01-13T13:47:06.229Z,65.39
2023-01-13T14:15:40.380Z,65.32
2023-01-13T14:44:15.390Z,65.16
2023-01-13T15:12:47.535Z,65.03
2023-01-13T15:41:20.475Z,64.97
2023-01-13T16:09:54.585Z,64.79
2023-01-13T16:38:28.927Z,64.69
2023-01-13T17:06:58.853Z,64.58
2023-01-13T17:35:37.404Z,64.58
2023-01-13T18:04:20.888Z,64.51
2023-01-13T18:33:02.461Z,64.54
2023-01-13T19:01:37.040Z,64.55
2023-01-13T19:30:06.774Z,64.46
2023-01-13T19:58:48.016Z,64.47
2023-01-13T20:27:22.999Z,64.37
2023-01-13T20:55:59.199Z,64.33
2023-01-13T21:24:37.971Z,64.27
2023-01-13T21:53:18.293Z,64.26
2023-01-13T22:22:06.109Z,64.18
2023-01-13T22:50:55.780Z,64.15
2023-01-13T23:19:40.984Z,64.11
2023-01-13T23:48:25.239Z,64.07
